createdAt,value
2022-11-05T00:01:38.101Z,1011.98
2022-11-05T00:06:30.899Z,1012.04
2022-11-05T00:11:23.735Z,1012.16
2022-11-05T00:16:16.694Z,1012.2
2022-11-05T00:21:11.590Z,1012.27
2022-11-05T00:26:04.193Z,1012.29
2022-11-05T00:30:57.096Z,1012.33
2022-11-05T00:35:50.174Z,1012.37
2022-11-05T00:40:45.066Z,1012.45
2022-11-05T00:45:37.609Z,1012.45
2022-11-05T00:50:30.561Z,1012.52
2022-11-05T00:55:23.398Z,1012.54
2022-11-05T01:00:16.202Z,1012.54
2022-11-05T01:05:09.342Z,1012.54
2022-11-05T01:10:02.403Z,1012.59
2022-11-05T01:14:55.531Z,1012.56
2022-11-05T01:19:50.482Z,1012.67
2022-11-05T01:24:42.988Z,1012.65
2022-11-05T01:29:36.105Z,1012.67
2022-11-05T01:34:31.238Z,1012.76
2022-11-05T01:39:23.571Z,1012.85
2022-11-05T01:44:16.427Z,1012.95
2022-11-05T01:49:09.386Z,1012.97
2022-11-05T01:54:02.407Z,1012.98
2022-11-05T01:58:55.403Z,1013.04
2022-11-05T02:03:48.179Z,1013.13
2022-11-05T02:08:41.204Z,1013.15
2022-11-05T02:13:39.705Z,1013.24
2022-11-05T02:18:31.513Z,1013.26
2022-11-05T02:23:24.425Z,1013.23
2022-11-05T02:28:17.555Z,1013.33
2022-11-05T02:33:11.019Z,1013.36
2022-11-05T02:38:03.598Z,1013.33
2022-11-05T02:42:56.659Z,1013.32
2022-11-05T02:47:49.886Z,1013.37
2022-11-05T02:57:36.079Z,1013.34
2022-11-05T03:07:22.140Z,1013.44
2022-11-05T03:12:17.199Z,1013.53
2022-11-05T03:17:09.690Z,1013.66
2022-11-05T03:22:02.771Z,1013.63
2022-11-05T03:31:43.696Z,1013.86
2022-11-05T03:36:37.616Z,1013.86
2022-11-05T03:41:30.643Z,1013.92
2022-11-05T03:46:23.745Z,1014
2022-11-05T03:51:16.710Z,1014.03
2022-11-05T03:56:09.677Z,1014.12
2022-11-05T04:01:02.607Z,1014.22
2022-11-05T04:05:55.764Z,1014.25
2022-11-05T04:10:48.802Z,1014.27
2022-11-05T04:15:41.721Z,1014.28
2022-11-05T04:20:34.738Z,1014.37
2022-11-05T04:25:27.785Z,1014.43
2022-11-05T04:30:20.945Z,1014.42
2022-11-05T04:35:13.953Z,1014.43
2022-11-05T04:40:06.687Z,1014.49
2022-11-05T04:44:59.561Z,1014.58
2022-11-05T04:49:52.591Z,1014.6
2022-11-05T04:54:45.557Z,1014.63
2022-11-05T04:59:38.537Z,1014.63
2022-11-05T05:04:31.674Z,1014.67
2022-11-05T05:09:24.633Z,1014.66
2022-11-05T05:14:17.665Z,1014.69
2022-11-05T05:19:10.780Z,1014.65
2022-11-05T05:24:03.911Z,1014.67
2022-11-05T05:28:57.029Z,1014.62
2022-11-05T05:33:50.069Z,1014.69
2022-11-05T05:38:43.258Z,1014.77
2022-11-05T05:43:36.237Z,1014.8
2022-11-05T05:48:31.709Z,1014.95
2022-11-05T05:53:24.212Z,1015.06
2022-11-05T05:58:17.396Z,1015.16
2022-11-05T06:07:58.557Z,1015.24
2022-11-05T06:12:52.905Z,1015.23
2022-11-05T06:17:45.994Z,1015.32
2022-11-05T06:22:39.127Z,1015.34
2022-11-05T06:27:32.363Z,1015.4
2022-11-05T06:32:25.335Z,1015.52
2022-11-05T06:37:18.347Z,1015.59
2022-11-05T06:42:18.211Z,1015.72
2022-11-05T06:47:04.790Z,1015.82
2022-11-05T06:51:57.811Z,1015.99
2022-11-05T06:56:51.017Z,1016.03
2022-11-05T07:01:44.478Z,1016.12
2022-11-05T07:06:37.466Z,1016.16
2022-11-05T07:11:30.741Z,1016.14
2022-11-05T07:16:23.929Z,1016.19
2022-11-05T07:21:17.169Z,1016.22
2022-11-05T07:26:10.155Z,1016.28
2022-11-05T07:31:03.051Z,1016.27
2022-11-05T07:35:56.161Z,1016.34
2022-11-05T07:40:49.078Z,1016.35
2022-11-05T07:45:44.421Z,1016.44
2022-11-05T07:50:36.771Z,1016.51
2022-11-05T07:55:29.950Z,1016.52
2022-11-05T08:00:22.993Z,1016.6
2022-11-05T08:05:16.008Z,1016.59
2022-11-05T08:15:02.083Z,1016.62
2022-11-05T08:24:48.447Z,1016.73
2022-11-05T08:34:34.473Z,1016.81
2022-11-05T08:39:27.370Z,1016.95
2022-11-05T08:44:20.536Z,1017.03
2022-11-05T08:49:13.767Z,1017.11
2022-11-05T08:54:06.634Z,1017.25
2022-11-05T08:58:59.192Z,1017.2
2022-11-05T09:03:52.111Z,1017.19
2022-11-05T09:08:44.910Z,1017.26
2022-11-05T09:13:37.690Z,1017.37
2022-11-05T09:18:32.484Z,1017.38
2022-11-05T09:23:25.008Z,1017.4
2022-11-05T09:28:18.241Z,1017.54
2022-11-05T09:33:11.234Z,1017.61
2022-11-05T09:38:03.763Z,1017.6
2022-11-05T09:42:56.638Z,1017.62
2022-11-05T09:47:51.260Z,1017.68
2022-11-05T09:52:43.817Z,1017.75
2022-11-05T09:57:36.489Z,1017.76
2022-11-05T10:02:29.815Z,1017.74
2022-11-05T10:07:22.287Z,1017.81
2022-11-05T10:12:15.242Z,1017.73
2022-11-05T10:17:08.052Z,1017.78
2022-11-05T10:22:06.438Z,1017.8
2022-11-05T10:26:53.744Z,1017.8
2022-11-05T10:31:46.549Z,1017.75
2022-11-05T10:36:39.518Z,1017.75
2022-11-05T10:41:32.415Z,1017.78
2022-11-05T10:46:25.351Z,1017.72
2022-11-05T10:51:18.421Z,1017.74
2022-11-05T10:56:11.361Z,1017.87
2022-11-05T11:01:04.884Z,1017.85
2022-11-05T11:05:57.724Z,1017.85
2022-11-05T11:10:50.800Z,1017.78
2022-11-05T11:15:43.970Z,1017.89
2022-11-05T11:20:37.006Z,1017.9
2022-11-05T11:25:30.070Z,1017.89
2022-11-05T11:30:23.003Z,1017.9
2022-11-05T11:35:16.230Z,1017.9
2022-11-05T11:40:10.182Z,1017.84
2022-11-05T11:45:02.561Z,1017.79
2022-11-05T11:49:55.566Z,1017.73
2022-11-05T11:54:48.715Z,1017.7
2022-11-05T12:00:06.975Z,1017.62
2022-11-05T12:04:34.888Z,1017.63
2022-11-05T12:09:27.904Z,1017.66
2022-11-05T12:14:20.958Z,1017.66
2022-11-05T12:19:14.247Z,1017.66
2022-11-05T12:24:07.235Z,1017.76
2022-11-05T12:29:34.537Z,1017.69
2022-11-05T12:33:53.604Z,1017.76
2022-11-05T12:38:46.574Z,1017.75
2022-11-05T12:43:39.748Z,1017.84
2022-11-05T12:48:36.823Z,1017.77
2022-11-05T12:53:25.700Z,1017.78
2022-11-05T12:58:18.892Z,1017.77
2022-11-05T13:03:11.952Z,1017.71
2022-11-05T13:08:04.939Z,1017.71
2022-11-05T13:12:58.129Z,1017.7
2022-11-05T13:17:51.283Z,1017.76
2022-11-05T13:22:44.481Z,1017.79
2022-11-05T13:27:37.524Z,1017.78
2022-11-05T13:32:30.467Z,1017.87
2022-11-05T13:37:23.585Z,1017.86
2022-11-05T13:42:16.608Z,1017.85
2022-11-05T13:47:09.706Z,1017.87
2022-11-05T13:52:02.784Z,1017.86
2022-11-05T13:56:55.946Z,1017.89
2022-11-05T14:01:49.248Z,1017.86
2022-11-05T14:21:20.280Z,1017.91
2022-11-05T14:26:13.321Z,1017.92
2022-11-05T14:31:06.444Z,1017.93
2022-11-05T14:35:59.492Z,1017.9
2022-11-05T14:40:52.741Z,1017.94
2022-11-05T14:45:45.605Z,1018.02
2022-11-05T14:50:38.506Z,1018.02
2022-11-05T14:55:31.728Z,1018.05
2022-11-05T15:00:24.480Z,1018.1
2022-11-05T15:05:17.522Z,1018.11
2022-11-05T15:10:11.010Z,1018.14
2022-11-05T15:15:03.383Z,1018.17
2022-11-05T15:19:56.143Z,1018.17
2022-11-05T15:24:49.190Z,1018.21
2022-11-05T15:29:42.182Z,1018.23
2022-11-05T15:34:35.209Z,1018.26
2022-11-05T15:39:29.856Z,1018.35
2022-11-05T15:44:21.467Z,1018.34
2022-11-05T15:49:14.576Z,1018.42
2022-11-05T15:54:28.859Z,1018.48
2022-11-05T15:59:02.733Z,1018.53
2022-11-05T16:03:57.361Z,1018.59
2022-11-05T16:08:49.867Z,1018.54
2022-11-05T16:13:42.990Z,1018.55
2022-11-05T16:18:35.939Z,1018.53
2022-11-05T16:23:28.781Z,1018.61
2022-11-05T16:28:21.977Z,1018.68
2022-11-05T16:33:15.151Z,1018.68
2022-11-05T16:38:08.244Z,1018.74
2022-11-05T16:43:03.281Z,1018.76
2022-11-05T16:47:55.848Z,1018.78
2022-11-05T16:52:48.955Z,1018.81
2022-11-05T16:57:41.856Z,1018.88
2022-11-05T17:02:34.952Z,1018.87
2022-11-05T17:07:27.602Z,1018.93
2022-11-05T17:12:15.752Z,1019.02
2022-11-05T17:17:08.018Z,1019.13
2022-11-05T17:22:02.244Z,1019.19
2022-11-05T17:26:55.125Z,1019.24
2022-11-05T17:31:48.139Z,1019.24
2022-11-05T17:36:41.253Z,1019.29
2022-11-05T17:41:34.325Z,1019.32
2022-11-05T17:46:27.458Z,1019.46
2022-11-05T17:51:20.480Z,1019.5
2022-11-05T17:56:13.367Z,1019.5
2022-11-05T18:01:06.601Z,1019.49
2022-11-05T18:05:59.229Z,1019.55
2022-11-05T18:10:54.336Z,1019.58
2022-11-05T18:15:46.916Z,1019.57
2022-11-05T18:25:28.006Z,1019.67
2022-11-05T18:30:22.239Z,1019.65
2022-11-05T18:35:15.165Z,1019.67
2022-11-05T18:40:08.189Z,1019.65
2022-11-05T18:49:54.105Z,1019.63
2022-11-05T18:59:40.219Z,1019.53
2022-11-05T19:09:26.453Z,1019.51
2022-11-05T19:19:07.317Z,1019.66
2022-11-05T19:24:01.506Z,1019.72
2022-11-05T19:28:54.544Z,1019.71
2022-11-05T19:33:47.742Z,1019.62
2022-11-05T19:38:40.764Z,1019.64
2022-11-05T19:43:33.846Z,1019.67
2022-11-05T19:48:26.945Z,1019.7
2022-11-05T19:53:20.160Z,1019.77
2022-11-05T19:58:13.641Z,1019.71
2022-11-05T20:03:06.383Z,1019.78
2022-11-05T20:07:59.564Z,1019.8
2022-11-05T20:12:52.619Z,1019.79
2022-11-05T20:17:45.658Z,1019.88
2022-11-05T20:22:38.769Z,1019.95
2022-11-05T20:27:31.756Z,1019.97
2022-11-05T20:32:26.733Z,1020.04
2022-11-05T20:37:19.305Z,1019.98
2022-11-05T20:42:12.372Z,1019.97
2022-11-05T20:47:05.428Z,1019.94
2022-11-05T20:51:58.339Z,1020
2022-11-05T20:56:51.530Z,1020.06
2022-11-05T21:01:44.746Z,1020.08
2022-11-05T21:06:37.429Z,1020.18
2022-11-05T21:11:24.523Z,1020.18
2022-11-05T21:16:21.558Z,1020.28
2022-11-05T21:21:14.545Z,1020.33
2022-11-05T21:26:09.436Z,1020.33
2022-11-05T21:31:01.965Z,1020.24
2022-11-05T21:35:54.926Z,1020.17
2022-11-05T21:40:47.813Z,1020.07
2022-11-05T21:45:40.779Z,1020.06
2022-11-05T21:50:33.594Z,1020.05
2022-11-05T21:55:26.124Z,1020.11
2022-11-05T22:00:21.086Z,1020.23
2022-11-05T22:05:13.600Z,1020.1
2022-11-05T22:14:54.489Z,1020.1
2022-11-05T22:19:48.700Z,1019.98
2022-11-05T22:24:41.782Z,1019.99
2022-11-05T22:29:34.795Z,1020.05
2022-11-05T22:34:27.871Z,1020.01
2022-11-05T22:39:20.694Z,1020.09
2022-11-05T22:44:13.654Z,1020.09
2022-11-05T22:49:06.631Z,1020.07
2022-11-05T22:53:59.684Z,1019.98
2022-11-05T22:58:52.694Z,1019.97
2022-11-05T23:03:45.627Z,1019.98
2022-11-05T23:08:38.517Z,1019.91
2022-11-05T23:13:31.482Z,1019.99
2022-11-05T23:18:24.468Z,1020.06
2022-11-05T23:23:17.581Z,1020.05
2022-11-05T23:28:10.840Z,1020.1
2022-11-05T23:33:03.524Z,1020.05
2022-11-05T23:37:56.427Z,1020.05
2022-11-05T23:42:49.279Z,1020.01
2022-11-05T23:52:30.349Z,1020.15
2022-11-05T23:57:24.364Z,1020.11
